sensor_id;sensor_type;location;lat;lon;timestamp;pressure;altitude;pressure_sealevel;temperature;humidity
51530;BME280;37613;51.788;21.582;2022-10-18T00:01:27;101085.55;;;11.37;82.47
51530;BME280;37613;51.788;21.582;2022-10-18T00:05:29;101081.80;;;11.26;82.47
51530;BME280;37613;51.788;21.582;2022-10-18T00:09:31;101080.16;;;11.14;82.50
51530;BME280;37613;51.788;21.582;2022-10-18T00:13:33;101081.13;;;11.02;82.70
51530;BME280;37613;51.788;21.582;2022-10-18T00:17:35;101084.95;;;10.92;82.61
51530;BME280;37613;51.788;21.582;2022-10-18T00:21:37;101082.84;;;10.81;82.73
51530;BME280;37613;51.788;21.582;2022-10-18T00:25:39;101082.09;;;10.72;82.82
51530;BME280;37613;51.788;21.582;2022-10-18T00:29:41;101082.30;;;10.63;82.81
51530;BME280;37613;51.788;21.582;2022-10-18T00:33:43;101080.03;;;10.54;82.97
51530;BME280;37613;51.788;21.582;2022-10-18T00:37:45;101081.90;;;10.46;83.05
51530;BME280;37613;51.788;21.582;2022-10-18T00:41:47;101085.50;;;10.38;83.00
51530;BME280;37613;51.788;21.582;2022-10-18T00:45:49;101083.88;;;10.29;83.17
51530;BME280;37613;51.788;21.582;2022-10-18T00:49:52;101085.89;;;10.23;83.27
51530;BME280;37613;51.788;21.582;2022-10-18T00:53:55;101083.57;;;10.17;83.34
51530;BME280;37613;51.788;21.582;2022-10-18T00:57:57;101087.89;;;10.10;83.28
51530;BME280;37613;51.788;21.582;2022-10-18T01:01:59;101093.63;;;10.03;83.51
51530;BME280;37613;51.788;21.582;2022-10-18T01:06:01;101094.93;;;9.96;83.53
51530;BME280;37613;51.788;21.582;2022-10-18T01:14:33;101090.68;;;9.83;83.71
51530;BME280;37613;51.788;21.582;2022-10-18T01:22:47;101081.41;;;9.71;83.65
51530;BME280;37613;51.788;21.582;2022-10-18T01:31:14;101066.02;;;9.62;83.90
51530;BME280;37613;51.788;21.582;2022-10-18T01:35:30;101055.98;;;9.58;83.80
51530;BME280;37613;51.788;21.582;2022-10-18T01:39:33;101055.13;;;9.53;83.77
51530;BME280;37613;51.788;21.582;2022-10-18T01:43:36;101047.46;;;9.49;83.79
51530;BME280;37613;51.788;21.582;2022-10-18T01:47:39;101048.10;;;9.44;83.88
51530;BME280;37613;51.788;21.582;2022-10-18T01:51:43;101048.95;;;9.35;83.77
51530;BME280;37613;51.788;21.582;2022-10-18T01:55:45;101045.83;;;9.28;83.94
51530;BME280;37613;51.788;21.582;2022-10-18T02:04:03;101034.88;;;9.19;84.12
51530;BME280;37613;51.788;21.582;2022-10-18T02:12:12;101026.21;;;9.16;84.48
51530;BME280;37613;51.788;21.582;2022-10-18T02:16:19;101026.36;;;9.15;84.59
51530;BME280;37613;51.788;21.582;2022-10-18T02:20:23;101025.48;;;9.15;84.68
51530;BME280;37613;51.788;21.582;2022-10-18T02:24:27;101020.81;;;9.14;84.80
51530;BME280;37613;51.788;21.582;2022-10-18T02:28:32;101018.03;;;9.12;84.84
51530;BME280;37613;51.788;21.582;2022-10-18T02:32:37;101008.48;;;9.04;84.61
51530;BME280;37613;51.788;21.582;2022-10-18T02:36:41;101012.84;;;9.05;84.71
51530;BME280;37613;51.788;21.582;2022-10-18T02:40:44;101012.27;;;9.01;84.74
51530;BME280;37613;51.788;21.582;2022-10-18T02:44:46;101006.67;;;8.96;84.82
51530;BME280;37613;51.788;21.582;2022-10-18T02:48:48;101007.14;;;8.92;84.80
51530;BME280;37613;51.788;21.582;2022-10-18T02:52:49;101009.95;;;8.86;84.80
51530;BME280;37613;51.788;21.582;2022-10-18T02:56:51;101015.29;;;8.81;84.86
51530;BME280;37613;51.788;21.582;2022-10-18T03:00:53;101012.66;;;8.76;84.86
51530;BME280;37613;51.788;21.582;2022-10-18T03:04:55;101007.38;;;8.72;84.74
51530;BME280;37613;51.788;21.582;2022-10-18T03:08:56;101008.33;;;8.68;84.96
51530;BME280;37613;51.788;21.582;2022-10-18T03:12:58;101009.55;;;8.65;85.15
51530;BME280;37613;51.788;21.582;2022-10-18T03:17:00;101007.42;;;8.65;85.35
51530;BME280;37613;51.788;21.582;2022-10-18T03:21:05;101003.63;;;8.65;85.30
51530;BME280;37613;51.788;21.582;2022-10-18T03:25:07;101003.27;;;8.63;85.13
51530;BME280;37613;51.788;21.582;2022-10-18T03:29:09;100998.18;;;8.60;85.31
51530;BME280;37613;51.788;21.582;2022-10-18T03:33:11;100998.73;;;8.60;85.31
51530;BME280;37613;51.788;21.582;2022-10-18T03:37:13;100992.71;;;8.59;85.24
51530;BME280;37613;51.788;21.582;2022-10-18T03:41:15;100993.50;;;8.59;85.31
51530;BME280;37613;51.788;21.582;2022-10-18T03:45:17;100997.25;;;8.58;85.27
51530;BME280;37613;51.788;21.582;2022-10-18T03:49:19;100994.53;;;8.56;85.52
51530;BME280;37613;51.788;21.582;2022-10-18T03:53:23;100997.09;;;8.55;85.46
51530;BME280;37613;51.788;21.582;2022-10-18T03:57:25;100997.21;;;8.52;85.39
51530;BME280;37613;51.788;21.582;2022-10-18T04:01:27;100999.10;;;8.52;85.67
51530;BME280;37613;51.788;21.582;2022-10-18T04:05:29;100995.80;;;8.52;85.78
51530;BME280;37613;51.788;21.582;2022-10-18T04:09:31;100996.37;;;8.54;85.86
51530;BME280;37613;51.788;21.582;2022-10-18T04:13:33;100995.42;;;8.54;85.71
51530;BME280;37613;51.788;21.582;2022-10-18T04:17:35;100993.73;;;8.52;85.70
51530;BME280;37613;51.788;21.582;2022-10-18T04:21:37;100986.30;;;8.50;85.70
51530;BME280;37613;51.788;21.582;2022-10-18T04:25:39;100989.84;;;8.49;85.85
51530;BME280;37613;51.788;21.582;2022-10-18T04:29:41;100985.67;;;8.50;86.00
51530;BME280;37613;51.788;21.582;2022-10-18T04:33:42;100988.83;;;8.50;86.10
51530;BME280;37613;51.788;21.582;2022-10-18T04:37:44;100983.94;;;8.50;86.10
51530;BME280;37613;51.788;21.582;2022-10-18T04:41:46;100986.59;;;8.48;85.90
51530;BME280;37613;51.788;21.582;2022-10-18T04:45:47;100990.16;;;8.47;86.02
51530;BME280;37613;51.788;21.582;2022-10-18T04:49:51;100986.52;;;8.46;86.13
51530;BME280;37613;51.788;21.582;2022-10-18T04:53:53;100982.35;;;8.46;86.15
51530;BME280;37613;51.788;21.582;2022-10-18T04:57:55;100986.18;;;8.45;86.13
51530;BME280;37613;51.788;21.582;2022-10-18T05:01:56;100990.77;;;8.41;85.98
51530;BME280;37613;51.788;21.582;2022-10-18T05:05:58;100988.99;;;8.40;86.02
51530;BME280;37613;51.788;21.582;2022-10-18T05:10:00;100984.73;;;8.36;85.96
51530;BME280;37613;51.788;21.582;2022-10-18T05:14:01;100990.15;;;8.35;86.14
51530;BME280;37613;51.788;21.582;2022-10-18T05:18:03;100989.98;;;8.38;86.38
51530;BME280;37613;51.788;21.582;2022-10-18T05:22:05;100991.18;;;8.42;86.47
51530;BME280;37613;51.788;21.582;2022-10-18T05:26:07;100993.11;;;8.48;86.46
51530;BME280;37613;51.788;21.582;2022-10-18T05:30:09;100997.77;;;8.55;86.49
51530;BME280;37613;51.788;21.582;2022-10-18T05:34:11;101003.06;;;8.64;86.72
51530;BME280;37613;51.788;21.582;2022-10-18T05:38:13;101006.70;;;8.73;86.85
51530;BME280;37613;51.788;21.582;2022-10-18T05:42:14;101006.84;;;8.80;86.81
51530;BME280;37613;51.788;21.582;2022-10-18T05:46:16;101014.88;;;8.88;86.90
51530;BME280;37613;51.788;21.582;2022-10-18T05:50:18;101021.55;;;8.99;86.93
51530;BME280;37613;51.788;21.582;2022-10-18T05:54:26;101023.79;;;9.08;86.89
51530;BME280;37613;51.788;21.582;2022-10-18T05:58:28;101029.28;;;9.20;86.91
51530;BME280;37613;51.788;21.582;2022-10-18T06:02:29;101031.41;;;9.34;86.95
51530;BME280;37613;51.788;21.582;2022-10-18T06:06:31;101034.67;;;9.47;87.05
51530;BME280;37613;51.788;21.582;2022-10-18T06:10:33;101039.46;;;9.61;87.21
51530;BME280;37613;51.788;21.582;2022-10-18T06:14:35;101040.04;;;9.76;87.25
51530;BME280;37613;51.788;21.582;2022-10-18T06:18:37;101034.64;;;9.94;87.34
51530;BME280;37613;51.788;21.582;2022-10-18T06:22:39;101040.29;;;10.12;87.34
51530;BME280;37613;51.788;21.582;2022-10-18T06:26:40;101042.52;;;10.34;87.73
51530;BME280;37613;51.788;21.582;2022-10-18T06:30:42;101046.35;;;10.59;87.58
51530;BME280;37613;51.788;21.582;2022-10-18T06:34:45;101048.63;;;10.84;87.51
51530;BME280;37613;51.788;21.582;2022-10-18T06:38:47;101052.61;;;11.13;87.61
51530;BME280;37613;51.788;21.582;2022-10-18T06:42:48;101048.01;;;11.41;87.56
51530;BME280;37613;51.788;21.582;2022-10-18T06:46:53;101040.92;;;11.65;87.42
51530;BME280;37613;51.788;21.582;2022-10-18T06:50:56;101040.34;;;11.85;87.37
51530;BME280;37613;51.788;21.582;2022-10-18T06:54:57;101039.38;;;12.06;87.24
51530;BME280;37613;51.788;21.582;2022-10-18T06:58:59;101038.58;;;12.28;87.25
51530;BME280;37613;51.788;21.582;2022-10-18T07:03:01;101040.61;;;12.51;87.33
51530;BME280;37613;51.788;21.582;2022-10-18T07:07:03;101039.85;;;12.76;87.24
51530;BME280;37613;51.788;21.582;2022-10-18T07:11:05;101044.13;;;12.96;86.60
51530;BME280;37613;51.788;21.582;2022-10-18T07:15:07;101041.71;;;13.09;86.42
51530;BME280;37613;51.788;21.582;2022-10-18T07:19:11;101036.30;;;13.22;86.33
51530;BME280;37613;51.788;21.582;2022-10-18T07:23:14;101034.81;;;13.34;86.13
51530;BME280;37613;51.788;21.582;2022-10-18T07:27:16;101032.13;;;13.50;86.22
51530;BME280;37613;51.788;21.582;2022-10-18T07:31:18;101031.44;;;13.64;86.06
51530;BME280;37613;51.788;21.582;2022-10-18T07:35:19;101028.18;;;13.71;85.74
51530;BME280;37613;51.788;21.582;2022-10-18T07:39:21;101026.02;;;13.75;85.65
51530;BME280;37613;51.788;21.582;2022-10-18T07:43:23;101024.91;;;13.82;85.59
51530;BME280;37613;51.788;21.582;2022-10-18T07:47:27;101016.96;;;13.94;85.56
51530;BME280;37613;51.788;21.582;2022-10-18T07:51:29;101011.06;;;14.06;85.53
51530;BME280;37613;51.788;21.582;2022-10-18T07:55:33;101013.89;;;14.21;85.39
51530;BME280;37613;51.788;21.582;2022-10-18T07:59:34;101010.98;;;14.36;85.13
51530;BME280;37613;51.788;21.582;2022-10-18T08:03:37;101015.42;;;14.51;84.88
51530;BME280;37613;51.788;21.582;2022-10-18T08:07:41;101016.16;;;14.67;84.55
51530;BME280;37613;51.788;21.582;2022-10-18T08:11:43;101012.80;;;14.89;84.41
51530;BME280;37613;51.788;21.582;2022-10-18T08:15:45;101004.08;;;15.11;84.30
51530;BME280;37613;51.788;21.582;2022-10-18T08:19:47;100992.30;;;15.35;83.82
51530;BME280;37613;51.788;21.582;2022-10-18T08:23:49;100985.76;;;15.58;82.04
51530;BME280;37613;51.788;21.582;2022-10-18T08:27:54;100984.75;;;15.76;81.09
51530;BME280;37613;51.788;21.582;2022-10-18T08:31:56;100989.10;;;15.96;81.57
51530;BME280;37613;51.788;21.582;2022-10-18T08:35:59;100987.09;;;16.14;80.37
51530;BME280;37613;51.788;21.582;2022-10-18T08:40:01;100982.28;;;16.30;80.28
51530;BME280;37613;51.788;21.582;2022-10-18T08:48:04;100971.67;;;16.62;78.45
51530;BME280;37613;51.788;21.582;2022-10-18T08:52:15;100971.81;;;16.72;76.59
51530;BME280;37613;51.788;21.582;2022-10-18T08:56:20;100970.00;;;16.77;76.16
51530;BME280;37613;51.788;21.582;2022-10-18T09:00:26;100964.80;;;16.84;75.67
51530;BME280;37613;51.788;21.582;2022-10-18T09:04:36;100963.83;;;16.85;74.67
51530;BME280;37613;51.788;21.582;2022-10-18T09:13:11;100945.49;;;16.83;73.60
51530;BME280;37613;51.788;21.582;2022-10-18T09:17:27;100943.13;;;16.92;73.53
51530;BME280;37613;51.788;21.582;2022-10-18T09:25:59;100939.94;;;17.18;73.36
51530;BME280;37613;51.788;21.582;2022-10-18T09:38:31;100930.69;;;17.70;73.34
51530;BME280;37613;51.788;21.582;2022-10-18T09:42:38;100930.33;;;17.86;72.92
51530;BME280;37613;51.788;21.582;2022-10-18T09:46:46;100918.92;;;18.02;71.77
51530;BME280;37613;51.788;21.582;2022-10-18T09:51:12;100916.23;;;17.96;69.54
51530;BME280;37613;51.788;21.582;2022-10-18T09:55:17;100911.91;;;17.96;69.87
51530;BME280;37613;51.788;21.582;2022-10-18T10:03:28;100905.61;;;18.00;67.97
51530;BME280;37613;51.788;21.582;2022-10-18T10:07:34;100897.37;;;18.00;68.74
51530;BME280;37613;51.788;21.582;2022-10-18T10:11:37;100895.73;;;18.06;67.77
51530;BME280;37613;51.788;21.582;2022-10-18T10:15:44;100889.00;;;18.10;67.86
51530;BME280;37613;51.788;21.582;2022-10-18T10:23:56;100883.15;;;18.15;66.50
51530;BME280;37613;51.788;21.582;2022-10-18T10:28:02;100878.61;;;18.15;66.19
51530;BME280;37613;51.788;21.582;2022-10-18T10:32:04;100875.14;;;18.11;65.71
51530;BME280;37613;51.788;21.582;2022-10-18T10:36:14;100867.95;;;18.07;64.98
51530;BME280;37613;51.788;21.582;2022-10-18T10:40:18;100859.33;;;18.14;66.11
51530;BME280;37613;51.788;21.582;2022-10-18T10:44:21;100856.91;;;18.29;65.70
51530;BME280;37613;51.788;21.582;2022-10-18T10:48:24;100845.50;;;18.43;64.75
51530;BME280;37613;51.788;21.582;2022-10-18T10:52:26;100834.04;;;18.51;64.91
51530;BME280;37613;51.788;21.582;2022-10-18T10:56:31;100823.70;;;18.58;65.70
51530;BME280;37613;51.788;21.582;2022-10-18T11:00:55;100816.80;;;18.67;65.44
51530;BME280;37613;51.788;21.582;2022-10-18T11:05:21;100807.34;;;18.68;65.80
51530;BME280;37613;51.788;21.582;2022-10-18T11:10:07;100796.08;;;18.76;66.07
51530;BME280;37613;51.788;21.582;2022-10-18T11:23:24;100781.54;;;19.01;64.77
51530;BME280;37613;51.788;21.582;2022-10-18T11:27:30;100783.05;;;19.07;64.50
51530;BME280;37613;51.788;21.582;2022-10-18T11:36:06;100769.25;;;19.23;64.49
51530;BME280;37613;51.788;21.582;2022-10-18T11:48:36;100751.45;;;19.21;63.65
51530;BME280;37613;51.788;21.582;2022-10-18T12:00:56;100735.39;;;19.28;63.91
51530;BME280;37613;51.788;21.582;2022-10-18T12:05:00;100727.89;;;19.21;63.29
51530;BME280;37613;51.788;21.582;2022-10-18T12:09:12;100716.69;;;19.12;63.73
51530;BME280;37613;51.788;21.582;2022-10-18T12:13:20;100710.01;;;19.18;64.32
51530;BME280;37613;51.788;21.582;2022-10-18T12:21:31;100690.42;;;19.26;64.39
51530;BME280;37613;51.788;21.582;2022-10-18T12:25:38;100691.21;;;19.26;63.80
51530;BME280;37613;51.788;21.582;2022-10-18T12:29:46;100687.45;;;19.29;64.25
51530;BME280;37613;51.788;21.582;2022-10-18T12:33:55;100682.23;;;19.38;63.77
51530;BME280;37613;51.788;21.582;2022-10-18T12:42:05;100675.72;;;19.46;64.17
51530;BME280;37613;51.788;21.582;2022-10-18T12:46:16;100670.35;;;19.46;63.58
51530;BME280;37613;51.788;21.582;2022-10-18T12:50:24;100667.66;;;19.43;63.62
51530;BME280;37613;51.788;21.582;2022-10-18T12:54:28;100665.13;;;19.33;63.20
51530;BME280;37613;51.788;21.582;2022-10-18T12:58:30;100659.70;;;19.30;63.52
51530;BME280;37613;51.788;21.582;2022-10-18T13:02:32;100651.88;;;19.26;63.44
51530;BME280;37613;51.788;21.582;2022-10-18T13:24:00;100623.55;;;19.02;63.66
51530;BME280;37613;51.788;21.582;2022-10-18T13:37:17;100602.30;;;18.78;64.13
51530;BME280;37613;51.788;21.582;2022-10-18T13:45:52;100592.35;;;18.75;64.68
51530;BME280;37613;51.788;21.582;2022-10-18T13:50:02;100583.91;;;18.71;64.76
51530;BME280;37613;51.788;21.582;2022-10-18T14:02:39;100565.48;;;18.49;65.38
51530;BME280;37613;51.788;21.582;2022-10-18T14:06:42;100558.83;;;18.41;65.42
51530;BME280;37613;51.788;21.582;2022-10-18T14:11:00;100556.04;;;18.32;65.56
51530;BME280;37613;51.788;21.582;2022-10-18T14:15:07;100551.73;;;18.25;65.67
51530;BME280;37613;51.788;21.582;2022-10-18T14:19:19;100549.33;;;18.19;66.02
51530;BME280;37613;51.788;21.582;2022-10-18T14:23:38;100550.18;;;18.13;66.29
51530;BME280;37613;51.788;21.582;2022-10-18T14:27:41;100549.29;;;18.08;66.42
51530;BME280;37613;51.788;21.582;2022-10-18T14:31:47;100543.02;;;18.03;66.63
51530;BME280;37613;51.788;21.582;2022-10-18T14:35:57;100536.13;;;17.98;66.85
51530;BME280;37613;51.788;21.582;2022-10-18T14:50:26;100519.86;;;17.79;67.73
51530;BME280;37613;51.788;21.582;2022-10-18T14:54:34;100510.46;;;17.64;67.99
51530;BME280;37613;51.788;21.582;2022-10-18T14:58:40;100503.91;;;17.50;68.17
51530;BME280;37613;51.788;21.582;2022-10-18T15:02:42;100496.23;;;17.34;68.47
51530;BME280;37613;51.788;21.582;2022-10-18T15:06:44;100487.50;;;17.17;68.71
51530;BME280;37613;51.788;21.582;2022-10-18T15:10:47;100482.05;;;17.00;69.03
51530;BME280;37613;51.788;21.582;2022-10-18T15:14:50;100478.69;;;16.83;69.20
51530;BME280;37613;51.788;21.582;2022-10-18T15:19:05;100469.95;;;16.64;69.47
51530;BME280;37613;51.788;21.582;2022-10-18T15:23:37;100465.69;;;16.46;69.85
51530;BME280;37613;51.788;21.582;2022-10-18T15:27:40;100466.64;;;16.26;70.19
51530;BME280;37613;51.788;21.582;2022-10-18T15:31:48;100462.12;;;16.08;70.42
51530;BME280;37613;51.788;21.582;2022-10-18T15:35:51;100456.45;;;15.91;70.68
51530;BME280;37613;51.788;21.582;2022-10-18T15:44:32;100453.97;;;15.59;71.43
51530;BME280;37613;51.788;21.582;2022-10-18T15:48:39;100457.48;;;15.53;71.88
51530;BME280;37613;51.788;21.582;2022-10-18T15:52:42;100456.33;;;15.45;72.20
51530;BME280;37613;51.788;21.582;2022-10-18T15:56:44;100455.23;;;15.39;72.38
51530;BME280;37613;51.788;21.582;2022-10-18T16:00:47;100456.84;;;15.33;72.74
51530;BME280;37613;51.788;21.582;2022-10-18T16:04:50;100457.00;;;15.28;73.10
51530;BME280;37613;51.788;21.582;2022-10-18T16:08:52;100455.30;;;15.23;73.32
51530;BME280;37613;51.788;21.582;2022-10-18T16:12:55;100436.91;;;15.19;73.60
51530;BME280;37613;51.788;21.582;2022-10-18T16:16:59;100436.11;;;15.14;73.88
51530;BME280;37613;51.788;21.582;2022-10-18T16:21:01;100437.27;;;15.11;74.20
51530;BME280;37613;51.788;21.582;2022-10-18T16:25:04;100443.67;;;15.08;74.42
51530;BME280;37613;51.788;21.582;2022-10-18T16:29:09;100442.21;;;15.00;74.70
51530;BME280;37613;51.788;21.582;2022-10-18T16:33:13;100452.98;;;15.03;74.92
51530;BME280;37613;51.788;21.582;2022-10-18T16:37:15;100448.65;;;15.00;75.21
51530;BME280;37613;51.788;21.582;2022-10-18T16:41:17;100447.88;;;14.98;75.34
51530;BME280;37613;51.788;21.582;2022-10-18T16:45:19;100450.36;;;14.97;75.58
51530;BME280;37613;51.788;21.582;2022-10-18T16:49:23;100446.08;;;14.97;75.88
51530;BME280;37613;51.788;21.582;2022-10-18T16:53:25;100442.52;;;14.96;76.05
51530;BME280;37613;51.788;21.582;2022-10-18T16:57:28;100442.92;;;14.94;76.31
51530;BME280;37613;51.788;21.582;2022-10-18T17:01:32;100453.92;;;14.93;76.45
51530;BME280;37613;51.788;21.582;2022-10-18T17:05:34;100465.03;;;14.90;76.47
51530;BME280;37613;51.788;21.582;2022-10-18T17:09:35;100470.86;;;14.88;76.74
51530;BME280;37613;51.788;21.582;2022-10-18T17:13:37;100485.84;;;14.87;76.85
51530;BME280;37613;51.788;21.582;2022-10-18T17:17:40;100493.28;;;14.84;77.20
51530;BME280;37613;51.788;21.582;2022-10-18T17:21:42;100491.88;;;14.82;78.37
51530;BME280;37613;51.788;21.582;2022-10-18T17:25:44;100492.92;;;14.81;78.71
51530;BME280;37613;51.788;21.582;2022-10-18T17:29:48;100500.75;;;14.79;78.97
51530;BME280;37613;51.788;21.582;2022-10-18T17:33:50;100503.60;;;14.73;80.44
51530;BME280;37613;51.788;21.582;2022-10-18T17:37:56;100500.35;;;14.66;84.87
51530;BME280;37613;51.788;21.582;2022-10-18T17:41:58;100497.11;;;14.57;83.06
51530;BME280;37613;51.788;21.582;2022-10-18T17:46:01;100500.79;;;14.48;82.44
51530;BME280;37613;51.788;21.582;2022-10-18T17:50:04;100511.40;;;14.43;83.99
51530;BME280;37613;51.788;21.582;2022-10-18T17:54:06;100515.55;;;14.35;89.77
51530;BME280;37613;51.788;21.582;2022-10-18T17:58:09;100510.76;;;14.20;91.27
51530;BME280;37613;51.788;21.582;2022-10-18T18:02:13;100532.92;;;14.04;88.56
51530;BME280;37613;51.788;21.582;2022-10-18T18:06:22;100541.40;;;13.91;87.01
51530;BME280;37613;51.788;21.582;2022-10-18T18:10:24;100527.52;;;13.79;88.63
51530;BME280;37613;51.788;21.582;2022-10-18T18:14:27;100525.48;;;13.63;89.33
51530;BME280;37613;51.788;21.582;2022-10-18T18:18:29;100523.77;;;13.49;91.50
51530;BME280;37613;51.788;21.582;2022-10-18T18:22:31;100532.09;;;13.37;90.90
51530;BME280;37613;51.788;21.582;2022-10-18T18:26:34;100541.98;;;13.30;89.67
51530;BME280;37613;51.788;21.582;2022-10-18T18:30:40;100550.11;;;13.24;91.82
51530;BME280;37613;51.788;21.582;2022-10-18T18:34:43;100559.49;;;13.19;91.02
51530;BME280;37613;51.788;21.582;2022-10-18T18:38:46;100565.61;;;13.17;92.35
51530;BME280;37613;51.788;21.582;2022-10-18T18:42:48;100573.23;;;13.15;91.90
51530;BME280;37613;51.788;21.582;2022-10-18T18:46:51;100582.84;;;13.13;91.24
51530;BME280;37613;51.788;21.582;2022-10-18T18:50:54;100582.45;;;13.12;92.78
51530;BME280;37613;51.788;21.582;2022-10-18T18:54:56;100580.56;;;13.08;93.12
51530;BME280;37613;51.788;21.582;2022-10-18T18:58:59;100583.35;;;13.05;92.34
51530;BME280;37613;51.788;21.582;2022-10-18T19:03:01;100593.52;;;13.01;93.20
51530;BME280;37613;51.788;21.582;2022-10-18T19:07:04;100590.52;;;12.99;92.38
51530;BME280;37613;51.788;21.582;2022-10-18T19:11:07;100589.35;;;12.95;92.63
51530;BME280;37613;51.788;21.582;2022-10-18T19:15:10;100588.09;;;12.93;92.28
51530;BME280;37613;51.788;21.582;2022-10-18T19:19:16;100578.33;;;12.89;92.55
51530;BME280;37613;51.788;21.582;2022-10-18T19:23:21;100581.14;;;12.84;91.54
51530;BME280;37613;51.788;21.582;2022-10-18T19:27:23;100585.80;;;12.82;91.10
51530;BME280;37613;51.788;21.582;2022-10-18T19:31:26;100587.80;;;12.81;91.04
51530;BME280;37613;51.788;21.582;2022-10-18T19:35:28;100579.80;;;12.79;90.94
51530;BME280;37613;51.788;21.582;2022-10-18T19:39:33;100578.70;;;12.78;91.18
51530;BME280;37613;51.788;21.582;2022-10-18T19:43:36;100586.46;;;12.75;90.83
51530;BME280;37613;51.788;21.582;2022-10-18T19:47:38;100596.71;;;12.73;90.74
51530;BME280;37613;51.788;21.582;2022-10-18T19:51:42;100606.24;;;12.70;91.09
51530;BME280;37613;51.788;21.582;2022-10-18T19:55:44;100612.27;;;12.66;91.16
51530;BME280;37613;51.788;21.582;2022-10-18T19:59:47;100609.67;;;12.62;91.15
51530;BME280;37613;51.788;21.582;2022-10-18T20:03:51;100606.89;;;12.58;90.93
51530;BME280;37613;51.788;21.582;2022-10-18T20:07:53;100608.09;;;12.54;91.11
51530;BME280;37613;51.788;21.582;2022-10-18T20:11:54;100608.98;;;12.46;91.11
51530;BME280;37613;51.788;21.582;2022-10-18T20:15:57;100622.85;;;12.47;90.95
51530;BME280;37613;51.788;21.582;2022-10-18T20:19:59;100631.25;;;12.44;91.13
51530;BME280;37613;51.788;21.582;2022-10-18T20:24:03;100639.98;;;12.41;91.32
51530;BME280;37613;51.788;21.582;2022-10-18T20:28:05;100637.22;;;12.39;91.55
51530;BME280;37613;51.788;21.582;2022-10-18T20:32:07;100639.11;;;12.38;91.57
51530;BME280;37613;51.788;21.582;2022-10-18T20:36:12;100644.89;;;12.37;91.40
51530;BME280;37613;51.788;21.582;2022-10-18T20:40:14;100647.50;;;12.37;91.36
51530;BME280;37613;51.788;21.582;2022-10-18T20:44:17;100633.08;;;12.37;91.73
51530;BME280;37613;51.788;21.582;2022-10-18T20:48:21;100640.69;;;12.36;92.48
51530;BME280;37613;51.788;21.582;2022-10-18T20:52:23;100639.03;;;12.34;92.08
51530;BME280;37613;51.788;21.582;2022-10-18T20:56:25;100641.65;;;12.32;92.35
51530;BME280;37613;51.788;21.582;2022-10-18T21:00:28;100634.60;;;12.29;91.98
51530;BME280;37613;51.788;21.582;2022-10-18T21:04:29;100636.02;;;12.26;92.01
51530;BME280;37613;51.788;21.582;2022-10-18T21:08:34;100644.73;;;12.25;91.68
51530;BME280;37613;51.788;21.582;2022-10-18T21:12:36;100644.98;;;12.23;91.79
51530;BME280;37613;51.788;21.582;2022-10-18T21:16:38;100634.92;;;12.22;91.89
51530;BME280;37613;51.788;21.582;2022-10-18T21:20:41;100629.84;;;12.20;92.16
51530;BME280;37613;51.788;21.582;2022-10-18T21:24:42;100629.21;;;12.17;92.50
51530;BME280;37613;51.788;21.582;2022-10-18T21:28:51;100628.19;;;12.16;92.21
51530;BME280;37613;51.788;21.582;2022-10-18T21:32:53;100631.66;;;12.14;93.18
51530;BME280;37613;51.788;21.582;2022-10-18T21:36:55;100634.20;;;12.12;93.10
51530;BME280;37613;51.788;21.582;2022-10-18T21:40:57;100630.00;;;12.10;93.11
51530;BME280;37613;51.788;21.582;2022-10-18T21:44:59;100625.57;;;12.09;92.86
51530;BME280;37613;51.788;21.582;2022-10-18T21:49:01;100631.27;;;12.08;93.10
51530;BME280;37613;51.788;21.582;2022-10-18T21:53:06;100633.09;;;12.06;93.22
51530;BME280;37613;51.788;21.582;2022-10-18T21:57:08;100635.69;;;12.05;93.55
51530;BME280;37613;51.788;21.582;2022-10-18T22:01:15;100626.34;;;12.04;93.28
51530;BME280;37613;51.788;21.582;2022-10-18T22:05:18;100623.02;;;12.04;93.35
51530;BME280;37613;51.788;21.582;2022-10-18T22:09:20;100623.50;;;12.03;94.49
51530;BME280;37613;51.788;21.582;2022-10-18T22:13:25;100614.08;;;12.02;94.89
51530;BME280;37613;51.788;21.582;2022-10-18T22:17:28;100611.23;;;12.01;94.15
51530;BME280;37613;51.788;21.582;2022-10-18T22:21:31;100609.80;;;12.01;94.42
51530;BME280;37613;51.788;21.582;2022-10-18T22:25:34;100607.18;;;12.01;95.61
51530;BME280;37613;51.788;21.582;2022-10-18T22:29:36;100604.02;;;11.99;95.14
51530;BME280;37613;51.788;21.582;2022-10-18T22:33:38;100602.42;;;11.98;95.21
51530;BME280;37613;51.788;21.582;2022-10-18T22:37:40;100600.59;;;11.96;96.50
51530;BME280;37613;51.788;21.582;2022-10-18T22:41:42;100602.02;;;11.96;96.49
51530;BME280;37613;51.788;21.582;2022-10-18T22:45:45;100597.51;;;11.94;96.93
51530;BME280;37613;51.788;21.582;2022-10-18T22:49:47;100599.65;;;11.93;96.24
51530;BME280;37613;51.788;21.582;2022-10-18T22:53:49;100600.61;;;11.92;96.83
51530;BME280;37613;51.788;21.582;2022-10-18T22:57:51;100605.67;;;11.92;97.54
51530;BME280;37613;51.788;21.582;2022-10-18T23:01:56;100609.87;;;11.91;97.74
51530;BME280;37613;51.788;21.582;2022-10-18T23:05:58;100602.74;;;11.91;97.38
51530;BME280;37613;51.788;21.582;2022-10-18T23:10:00;100603.52;;;11.90;97.76
51530;BME280;37613;51.788;21.582;2022-10-18T23:14:04;100598.37;;;11.88;97.46
51530;BME280;37613;51.788;21.582;2022-10-18T23:18:06;100600.76;;;11.86;97.88
51530;BME280;37613;51.788;21.582;2022-10-18T23:22:08;100598.70;;;11.84;97.72
51530;BME280;37613;51.788;21.582;2022-10-18T23:26:13;100596.63;;;11.82;97.91